createdAt,value
2022-09-09T04:02:16.805Z,2.93
2022-09-09T04:04:43.590Z,1.80
2022-09-09T04:07:10.537Z,2.13
2022-09-09T04:09:37.284Z,3.17
2022-09-09T04:12:04.111Z,1.60
2022-09-09T04:14:30.928Z,2.15
2022-09-09T04:16:58.387Z,2.20
2022-09-09T04:19:25.127Z,2.30
2022-09-09T04:21:54.715Z,2.30
2022-09-09T04:24:22.556Z,2.33
2022-09-09T04:26:49.239Z,1.45
2022-09-09T04:29:16.025Z,2.45
2022-09-09T04:31:44.427Z,2.72
2022-09-09T04:34:11.369Z,2.45
2022-09-09T04:36:41.508Z,2.42
2022-09-09T04:39:08.391Z,2.08
2022-09-09T04:41:36.399Z,1.90
2022-09-09T04:44:03.567Z,2.03
2022-09-09T04:46:30.352Z,1.80
2022-09-09T04:48:57.061Z,2.28
2022-09-09T04:51:23.847Z,1.92
2022-09-09T04:53:51.797Z,2.38
2022-09-09T04:56:19.197Z,2.17
2022-09-09T04:58:46.625Z,2.13
2022-09-09T05:01:16.359Z,1.90
2022-09-09T05:03:43.282Z,2.15
2022-09-09T05:06:12.534Z,2.70
2022-09-09T05:08:40.366Z,2.03
2022-09-09T05:11:30.103Z,2.65
2022-09-09T05:13:57.920Z,2.03
2022-09-09T05:16:24.934Z,1.95
2022-09-09T05:18:52.281Z,2.13
2022-09-09T05:21:22.690Z,2.28
2022-09-09T05:23:49.917Z,1.70
2022-09-09T05:26:18.994Z,3.50
2022-09-09T05:28:46.386Z,2.20
2022-09-09T05:31:17.671Z,2.67
2022-09-09T05:33:46.984Z,2.25
2022-09-09T05:36:16.519Z,3.80
2022-09-09T05:38:44.109Z,2.65
2022-09-09T05:41:12.431Z,2.47
2022-09-09T05:43:51.983Z,2.97
2022-09-09T05:46:34.064Z,3.00
2022-09-09T05:49:06.912Z,3.85
2022-09-09T05:54:00.316Z,2.63
2022-09-09T05:56:29.371Z,2.75
2022-09-09T05:59:07.965Z,3.50
2022-09-09T06:01:36.880Z,3.00
2022-09-09T06:04:04.878Z,3.55
2022-09-09T06:06:37.939Z,3.42
2022-09-09T06:09:10.782Z,3.35
2022-09-09T06:11:39.876Z,4.22
2022-09-09T06:14:07.135Z,2.80
2022-09-09T06:16:34.548Z,4.13
2022-09-09T06:19:04.848Z,3.50
2022-09-09T06:21:37.864Z,3.90
2022-09-09T06:24:05.634Z,3.88
2022-09-09T06:26:34.838Z,3.20
2022-09-09T06:29:04.840Z,3.08
2022-09-09T06:31:35.325Z,3.28
2022-09-09T06:34:03.131Z,3.10
2022-09-09T06:36:32.309Z,4.10
2022-09-09T06:39:02.864Z,3.35
2022-09-09T06:41:31.296Z,3.67
2022-09-09T06:43:58.540Z,3.17
2022-09-09T06:46:29.095Z,4.18
2022-09-09T06:48:57.089Z,4.88
2022-09-09T06:51:26.128Z,4.43
2022-09-09T06:53:55.431Z,3.50
2022-09-09T06:56:29.140Z,2.75
2022-09-09T06:59:02.018Z,2.97
2022-09-09T07:01:31.528Z,2.67
2022-09-09T07:04:03.129Z,3.22
2022-09-09T07:06:32.711Z,2.97
2022-09-09T07:09:07.808Z,3.10
2022-09-09T07:11:40.636Z,3.08
2022-09-09T07:14:08.023Z,3.50
2022-09-09T07:16:37.944Z,2.80
2022-09-09T07:19:05.329Z,3.03
2022-09-09T07:21:34.088Z,2.45
2022-09-09T07:24:01.594Z,2.20
2022-09-09T07:26:30.668Z,2.05
2022-09-09T07:28:58.106Z,2.47
2022-09-09T07:31:31.689Z,2.35
2022-09-09T07:34:00.732Z,2.28
2022-09-09T07:36:33.770Z,2.50
2022-09-09T07:39:09.987Z,2.17
2022-09-09T07:41:45.583Z,2.15
2022-09-09T07:44:14.989Z,3.00
2022-09-09T07:46:42.574Z,2.00
2022-09-09T07:49:10.815Z,2.42
2022-09-09T07:51:39.975Z,2.25
2022-09-09T07:54:10.271Z,2.45
2022-09-09T07:56:40.180Z,2.95
2022-09-09T07:59:08.081Z,3.00
2022-09-09T08:01:41.195Z,2.85
2022-09-09T08:04:16.577Z,2.65
2022-09-09T08:06:54.928Z,2.25
2022-09-09T08:09:22.532Z,2.42
2022-09-09T08:11:49.645Z,1.85
2022-09-09T08:14:16.514Z,1.92
2022-09-09T08:16:46.295Z,2.35
2022-09-09T08:19:13.924Z,2.45
2022-09-09T08:21:41.951Z,2.40
2022-09-09T08:24:11.443Z,2.33
2022-09-09T08:26:52.217Z,2.55
2022-09-09T08:29:19.340Z,2.47
2022-09-09T08:31:50.457Z,2.28
2022-09-09T08:34:20.995Z,2.47
2022-09-09T08:36:49.600Z,2.00
2022-09-09T08:39:20.553Z,2.03
2022-09-09T08:42:14.888Z,2.17
2022-09-09T08:45:04.896Z,2.47
2022-09-09T08:47:48.080Z,3.00
2022-09-09T08:50:27.701Z,3.45
2022-09-09T08:53:09.555Z,2.88
2022-09-09T08:55:44.000Z,2.90
2022-09-09T08:58:31.533Z,3.92
2022-09-09T09:01:10.736Z,2.85
2022-09-09T09:03:52.754Z,3.90
2022-09-09T09:06:31.648Z,3.77
2022-09-09T09:09:03.371Z,3.95
2022-09-09T09:11:43.603Z,2.50
2022-09-09T09:14:26.164Z,2.90
2022-09-09T09:17:05.576Z,3.05
2022-09-09T09:19:34.699Z,2.83
2022-09-09T09:22:13.230Z,3.20
2022-09-09T09:24:50.845Z,2.97
2022-09-09T09:27:37.607Z,3.10
2022-09-09T09:30:28.689Z,3.13
2022-09-09T09:33:17.191Z,3.15
2022-09-09T09:35:50.818Z,2.78
2022-09-09T09:41:10.619Z,3.08
2022-09-09T09:43:40.912Z,3.75
2022-09-09T09:46:21.637Z,4.10
2022-09-09T09:49:00.891Z,4.10
2022-09-09T09:51:29.325Z,3.88
2022-09-09T09:54:14.464Z,4.35
2022-09-09T09:56:42.119Z,4.93
2022-09-09T09:59:42.140Z,4.88
2022-09-09T10:02:24.173Z,6.60
2022-09-09T10:05:16.523Z,4.60
2022-09-09T10:07:46.963Z,5.38
2022-09-09T10:10:24.487Z,5.10
2022-09-09T10:13:10.628Z,4.40
2022-09-09T10:15:47.476Z,4.57
2022-09-09T10:18:39.300Z,5.40
2022-09-09T10:21:45.145Z,6.00
2022-09-09T10:24:30.850Z,5.07
2022-09-09T10:27:43.859Z,6.57
2022-09-09T10:30:51.755Z,5.18
2022-09-09T10:33:34.702Z,5.80
2022-09-09T10:36:15.038Z,5.82
2022-09-09T10:38:46.307Z,6.47
2022-09-09T10:41:25.819Z,6.47
2022-09-09T10:44:21.837Z,5.85
2022-09-09T10:47:08.192Z,5.13
2022-09-09T10:50:12.620Z,5.55
2022-09-09T10:53:03.406Z,5.50
2022-09-09T10:56:01.549Z,4.97
2022-09-09T10:58:48.948Z,5.88
2022-09-09T11:01:19.394Z,6.18
2022-09-09T11:03:52.905Z,4.95
2022-09-09T11:06:24.308Z,4.68
2022-09-09T11:08:53.828Z,5.35
2022-09-09T11:11:27.588Z,5.47
2022-09-09T11:14:01.860Z,6.00
2022-09-09T11:16:42.962Z,4.57
2022-09-09T11:19:29.329Z,6.05
2022-09-09T11:21:59.314Z,6.13
2022-09-09T11:24:39.878Z,5.03
2022-09-09T11:27:17.618Z,4.30
2022-09-09T11:29:45.312Z,4.20
2022-09-09T11:32:29.366Z,3.50
2022-09-09T11:35:40.899Z,3.70
2022-09-09T11:38:16.895Z,3.30
2022-09-09T11:40:44.540Z,2.65
2022-09-09T11:43:30.830Z,3.33
2022-09-09T11:46:01.516Z,3.25
2022-09-09T11:49:08.257Z,3.08
2022-09-09T11:51:39.109Z,3.25
2022-09-09T11:54:31.097Z,3.03
2022-09-09T11:57:02.658Z,3.65
2022-09-09T11:59:33.760Z,3.10
2022-09-09T12:02:24.054Z,2.80
2022-09-09T12:05:09.839Z,2.90
2022-09-09T12:08:05.215Z,3.10
2022-09-09T12:10:39.554Z,2.85
2022-09-09T12:13:26.628Z,2.75
2022-09-09T12:15:59.173Z,1.90
2022-09-09T12:21:19.362Z,2.70
2022-09-09T12:24:00.676Z,2.72
2022-09-09T12:26:54.320Z,2.00
2022-09-09T12:29:43.718Z,2.00
2022-09-09T12:32:22.847Z,1.70
2022-09-09T12:34:58.129Z,2.53
2022-09-09T12:37:39.373Z,2.28
2022-09-09T12:40:33.279Z,2.33
2022-09-09T12:43:02.382Z,1.92
2022-09-09T12:45:34.290Z,2.42
2022-09-09T12:48:02.460Z,2.38
2022-09-09T12:50:36.179Z,2.10
2022-09-09T12:53:08.324Z,1.70
2022-09-09T12:55:39.551Z,1.70
2022-09-09T12:58:07.550Z,1.30
2022-09-09T13:00:35.498Z,1.63
2022-09-09T13:03:17.076Z,2.03
2022-09-09T13:05:44.159Z,1.67
2022-09-09T13:08:13.451Z,2.30
2022-09-09T13:10:52.915Z,1.85
2022-09-09T13:13:35.356Z,2.40
2022-09-09T13:16:05.029Z,1.67
2022-09-09T13:18:41.479Z,1.73
2022-09-09T13:21:08.480Z,1.42
2022-09-09T13:23:37.799Z,1.95
2022-09-09T13:26:08.712Z,1.70
2022-09-09T13:28:36.110Z,2.58
2022-09-09T13:31:06.062Z,2.35
2022-09-09T13:33:40.088Z,1.83
2022-09-09T13:36:12.159Z,1.70
2022-09-09T13:38:52.421Z,2.22
2022-09-09T13:41:35.707Z,1.70
2022-09-09T13:44:04.300Z,1.77
2022-09-09T13:46:42.192Z,2.20
2022-09-09T13:49:11.644Z,1.40
2022-09-09T13:51:45.345Z,1.98
2022-09-09T13:54:13.571Z,1.73
2022-09-09T13:56:42.059Z,2.08
2022-09-09T13:59:14.926Z,1.90
2022-09-09T14:01:45.277Z,1.92
2022-09-09T14:04:12.080Z,2.00
2022-09-09T14:06:40.494Z,1.98
2022-09-09T14:09:08.699Z,2.30
2022-09-09T14:11:35.492Z,1.70
2022-09-09T14:14:02.207Z,2.00
2022-09-09T14:16:29.254Z,1.77
2022-09-09T14:18:57.682Z,2.22
2022-09-09T14:21:24.999Z,2.03
2022-09-09T14:23:51.839Z,1.65
2022-09-09T14:26:22.672Z,2.10
2022-09-09T14:28:57.713Z,1.90
2022-09-09T14:31:26.237Z,2.10
2022-09-09T14:33:53.720Z,1.90
2022-09-09T14:36:21.054Z,1.70
2022-09-09T14:38:48.567Z,1.70
2022-09-09T14:41:17.950Z,1.92
2022-09-09T14:43:45.544Z,2.03
2022-09-09T14:46:15.368Z,1.65
2022-09-09T14:48:42.660Z,1.95
2022-09-09T14:51:14.478Z,1.80
2022-09-09T14:53:41.959Z,1.95
2022-09-09T14:56:19.032Z,2.20
2022-09-09T14:58:45.996Z,2.33
2022-09-09T15:01:18.082Z,1.63
2022-09-09T15:03:51.443Z,1.95
2022-09-09T15:06:18.280Z,2.10
2022-09-09T15:08:46.438Z,1.75
2022-09-09T15:11:15.010Z,1.48
2022-09-09T15:13:43.566Z,1.77
2022-09-09T15:16:15.609Z,1.08
2022-09-09T15:18:47.156Z,1.17
2022-09-09T15:21:17.096Z,0.90
2022-09-09T15:23:48.757Z,1.10
2022-09-09T15:26:16.452Z,0.95
2022-09-09T15:28:44.610Z,1.15
2022-09-09T15:31:29.867Z,0.88
2022-09-09T15:34:01.845Z,1.60
2022-09-09T15:36:34.311Z,1.08
2022-09-09T15:39:02.772Z,1.00
2022-09-09T15:41:30.950Z,0.77
2022-09-09T15:43:58.425Z,1.42
2022-09-09T15:46:38.410Z,1.00
2022-09-09T15:49:23.715Z,1.15
2022-09-09T15:51:59.063Z,1.08
2022-09-09T15:54:26.938Z,1.05
2022-09-09T15:56:56.947Z,0.90
2022-09-09T15:59:32.117Z,0.85
2022-09-09T16:02:01.155Z,0.70
2022-09-09T16:04:30.030Z,0.93
2022-09-09T16:07:02.588Z,1.23
2022-09-09T16:12:01.932Z,1.50
2022-09-09T16:14:29.657Z,0.93
2022-09-09T16:16:57.615Z,0.95
2022-09-09T16:19:24.380Z,1.10
2022-09-09T16:21:51.511Z,1.30
2022-09-09T16:24:20.184Z,1.35
2022-09-09T16:26:49.473Z,1.30
2022-09-09T16:29:18.268Z,1.77
2022-09-09T16:31:46.657Z,1.13
2022-09-09T16:34:14.053Z,1.50
2022-09-09T16:36:42.368Z,1.75
2022-09-09T16:39:11.868Z,1.50
2022-09-09T16:41:39.957Z,1.90
2022-09-09T16:44:08.987Z,1.70
2022-09-09T16:46:39.779Z,1.42
2022-09-09T16:49:09.463Z,2.53
2022-09-09T16:51:42.732Z,1.73
2022-09-09T16:54:11.219Z,1.77
2022-09-09T16:56:42.165Z,1.60
2022-09-09T16:59:20.901Z,1.98
2022-09-09T17:01:50.268Z,2.20
2022-09-09T17:04:28.926Z,2.40
2022-09-09T17:07:01.383Z,2.15
2022-09-09T17:09:32.442Z,2.08
2022-09-09T17:11:59.974Z,2.20
2022-09-09T17:14:27.036Z,2.55
2022-09-09T17:16:53.857Z,2.33
2022-09-09T17:19:20.767Z,2.00
2022-09-09T17:22:13.044Z,2.00
2022-09-09T17:24:39.472Z,2.42
2022-09-09T17:27:06.576Z,2.40
2022-09-09T17:29:33.345Z,2.30
2022-09-09T17:32:00.509Z,2.20
2022-09-09T17:34:27.714Z,2.00
2022-09-09T17:36:54.552Z,2.15
2022-09-09T17:39:21.518Z,1.85
2022-09-09T17:41:48.283Z,2.00
2022-09-09T17:44:15.839Z,2.47
2022-09-09T17:46:44.050Z,2.08
2022-09-09T17:49:13.384Z,2.38
2022-09-09T17:51:42.530Z,2.13
2022-09-09T17:54:13.290Z,2.72
2022-09-09T17:56:40.663Z,3.15
2022-09-09T17:59:10.262Z,2.78
2022-09-09T18:01:39.590Z,2.58
2022-09-09T18:04:08.846Z,2.90
2022-09-09T18:06:41.965Z,1.83
2022-09-09T18:09:17.632Z,2.50
2022-09-09T18:11:47.395Z,2.20
2022-09-09T18:14:20.097Z,2.13
2022-09-09T18:16:47.532Z,1.70
2022-09-09T18:19:17.948Z,2.25
2022-09-09T18:21:45.726Z,2.90
2022-09-09T18:24:14.176Z,2.60
2022-09-09T18:26:41.967Z,2.70
2022-09-09T18:29:14.737Z,2.78
2022-09-09T18:31:44.683Z,2.75
2022-09-09T18:34:13.546Z,2.92
2022-09-09T18:36:49.022Z,2.67
2022-09-09T18:39:18.207Z,3.13
2022-09-09T18:41:51.748Z,2.67
2022-09-09T18:44:21.506Z,2.55
2022-09-09T18:46:49.346Z,2.05
2022-09-09T18:49:16.640Z,3.25
2022-09-09T18:51:45.282Z,2.70
2022-09-09T18:54:20.560Z,2.90
2022-09-09T18:56:48.373Z,4.07
2022-09-09T18:59:19.623Z,2.63
2022-09-09T19:01:50.707Z,2.17
2022-09-09T19:04:18.724Z,2.47
2022-09-09T19:06:48.100Z,2.55
2022-09-09T19:09:17.264Z,1.63
2022-09-09T19:11:45.151Z,2.05
2022-09-09T19:14:14.270Z,1.60
2022-09-09T19:16:41.255Z,2.15
2022-09-09T19:19:13.044Z,2.35
2022-09-09T19:21:46.160Z,2.53
2022-09-09T19:24:21.621Z,2.00
2022-09-09T19:26:51.149Z,2.08
2022-09-09T19:29:29.044Z,2.03
2022-09-09T19:34:44.767Z,2.30
2022-09-09T19:37:18.157Z,1.90
2022-09-09T19:39:46.032Z,2.08
2022-09-09T19:42:16.222Z,2.20
2022-09-09T19:44:43.119Z,2.15
2022-09-09T19:47:09.968Z,2.00
2022-09-09T19:49:40.272Z,3.10
2022-09-09T19:52:08.184Z,2.33
2022-09-09T19:54:35.362Z,3.00
2022-09-09T19:57:02.714Z,3.03
2022-09-09T19:59:41.569Z,2.58
2022-09-09T20:02:12.185Z,2.85
2022-09-09T20:04:39.009Z,2.50
2022-09-09T20:07:05.811Z,2.70
2022-09-09T20:09:32.941Z,2.00
2022-09-09T20:11:59.949Z,2.58
2022-09-09T20:14:27.086Z,2.55
2022-09-09T20:16:53.999Z,2.10
2022-09-09T20:19:20.801Z,2.28
2022-09-09T20:21:49.492Z,2.10
2022-09-09T20:24:19.431Z,1.67
2022-09-09T20:26:48.216Z,2.00
2022-09-09T20:29:17.716Z,1.85
2022-09-09T20:31:45.118Z,1.65
2022-09-09T20:34:15.410Z,1.85
2022-09-09T20:36:43.058Z,1.88
2022-09-09T20:39:19.950Z,1.90
2022-09-09T20:41:47.812Z,2.10
2022-09-09T20:44:21.767Z,2.72
2022-09-09T20:46:55.514Z,1.98
2022-09-09T20:49:24.259Z,2.60
2022-09-09T20:51:52.120Z,1.67
2022-09-09T20:54:23.499Z,1.70
2022-09-09T20:56:51.947Z,2.50
2022-09-09T20:59:21.800Z,1.63
2022-09-09T21:01:48.934Z,2.13
2022-09-09T21:04:17.505Z,2.35
2022-09-09T21:06:45.056Z,1.60
2022-09-09T21:09:12.585Z,1.33
2022-09-09T21:11:39.916Z,2.30
2022-09-09T21:14:06.735Z,1.92
2022-09-09T21:16:33.804Z,2.17
2022-09-09T21:19:00.596Z,2.85
2022-09-09T21:21:27.502Z,1.83
2022-09-09T21:23:59.203Z,1.90
2022-09-09T21:26:26.713Z,2.10
2022-09-09T21:28:54.929Z,2.47
2022-09-09T21:31:25.699Z,1.52
2022-09-09T21:33:54.105Z,3.00
2022-09-09T21:36:20.859Z,2.55
2022-09-09T21:38:47.760Z,2.25
2022-09-09T21:41:16.176Z,3.45
2022-09-09T21:43:44.195Z,2.63
2022-09-09T21:46:14.327Z,3.40
2022-09-09T21:48:41.560Z,2.55
2022-09-09T21:51:11.781Z,2.42
2022-09-09T21:53:39.638Z,2.63
2022-09-09T21:56:09.719Z,2.67
2022-09-09T21:58:37.188Z,2.10
2022-09-09T22:01:33.484Z,2.15
2022-09-09T22:04:00.873Z,2.50
2022-09-09T22:06:27.645Z,2.97
2022-09-09T22:08:57.192Z,2.85
2022-09-09T22:11:25.366Z,2.53
2022-09-09T22:13:55.953Z,2.35
2022-09-09T22:16:23.439Z,2.90
2022-09-09T22:18:53.144Z,3.45
2022-09-09T22:21:20.639Z,2.92
2022-09-09T22:23:59.279Z,3.88
2022-09-09T22:26:27.804Z,3.25
2022-09-09T22:28:57.196Z,3.30
2022-09-09T22:31:24.931Z,2.97
2022-09-09T22:33:51.966Z,3.70
2022-09-09T22:36:20.326Z,3.80
2022-09-09T22:38:51.247Z,3.95
2022-09-09T22:41:19.187Z,3.45
2022-09-09T22:43:46.775Z,4.05
2022-09-09T22:46:13.773Z,3.40
2022-09-09T22:48:41.149Z,3.75
2022-09-09T22:51:11.077Z,4.80
2022-09-09T22:53:42.675Z,4.25
2022-09-09T22:56:14.473Z,4.28
2022-09-09T22:58:41.403Z,3.47
2022-09-09T23:01:11.400Z,3.58
2022-09-09T23:03:38.406Z,4.32
2022-09-09T23:06:05.491Z,3.53
2022-09-09T23:08:35.503Z,4.32
2022-09-09T23:11:09.247Z,4.03
2022-09-09T23:13:43.729Z,4.35
2022-09-09T23:16:12.349Z,4.40
2022-09-09T23:18:43.577Z,4.75
2022-09-09T23:21:12.421Z,3.72
2022-09-09T23:23:41.316Z,3.70
2022-09-09T23:26:09.976Z,3.65
2022-09-09T23:28:41.920Z,3.95
2022-09-09T23:31:11.013Z,3.72
2022-09-09T23:33:37.856Z,3.95
2022-09-09T23:36:08.400Z,3.85
2022-09-09T23:38:38.094Z,5.22
2022-09-09T23:41:07.724Z,3.88
2022-09-09T23:43:39.337Z,3.42
2022-09-09T23:46:08.816Z,3.90
2022-09-09T23:48:39.894Z,4.30
2022-09-09T23:51:17.393Z,3.20
2022-09-09T23:53:48.889Z,3.70
2022-09-09T23:56:15.688Z,4.30
2022-09-09T23:58:42.465Z,4.00
